createdAt,value
2022-10-19T00:01:12.081Z,95145.97
2022-10-19T00:03:40.589Z,95146.81
2022-10-19T00:06:13.932Z,95151.44
2022-10-19T00:08:42.225Z,95149.00
2022-10-19T00:11:11.305Z,95146.28
2022-10-19T00:13:41.044Z,95144.78
2022-10-19T00:16:11.608Z,95135.38
2022-10-19T00:18:40.317Z,95139.75
2022-10-19T00:21:10.251Z,95133.34
2022-10-19T00:23:38.560Z,95129.13
2022-10-19T00:26:06.788Z,95125.69
2022-10-19T00:28:34.803Z,95120.97
2022-10-19T00:31:05.648Z,95112.66
2022-10-19T00:33:34.103Z,95111.16
2022-10-19T00:36:02.369Z,95099.44
2022-10-19T00:38:30.310Z,95102.72
2022-10-19T00:40:58.212Z,95098.34
2022-10-19T00:43:29.105Z,95099.72
2022-10-19T00:45:56.975Z,95096.19
2022-10-19T00:48:30.920Z,95081.63
2022-10-19T00:51:03.199Z,95085.56
2022-10-19T00:53:32.254Z,95087.91
2022-10-19T00:56:06.476Z,95082.31
2022-10-19T00:58:35.052Z,95079.75
2022-10-19T01:01:05.793Z,95074.75
2022-10-19T01:03:35.712Z,95070.00
2022-10-19T01:06:04.567Z,95065.94
2022-10-19T01:08:32.773Z,95061.41
2022-10-19T01:11:16.128Z,95063.75
2022-10-19T01:13:51.067Z,95051.91
2022-10-19T01:16:28.274Z,95059.56
2022-10-19T01:19:07.116Z,95060.22
2022-10-19T01:21:40.375Z,95049.47
2022-10-19T01:24:43.758Z,95051.09
2022-10-19T01:27:29.439Z,95045.16
2022-10-19T01:30:22.896Z,95043.75
2022-10-19T01:33:11.655Z,95038.47
2022-10-19T01:35:45.481Z,95039.31
2022-10-19T01:38:23.460Z,95043.50
2022-10-19T01:40:58.111Z,95035.88
2022-10-19T01:43:35.862Z,95032.91
2022-10-19T01:46:12.797Z,95022.56
2022-10-19T01:48:45.914Z,95025.41
2022-10-19T01:51:18.514Z,95026.91
2022-10-19T01:53:50.576Z,95020.47
2022-10-19T01:56:21.188Z,95018.34
2022-10-19T01:58:52.309Z,95019.41
2022-10-19T02:01:25.187Z,95014.09
2022-10-19T02:03:54.795Z,95010.03
2022-10-19T02:06:23.489Z,95009.47
2022-10-19T02:08:53.851Z,95004.97
2022-10-19T02:11:23.627Z,95005.88
2022-10-19T02:13:55.890Z,95008.03
2022-10-19T02:16:28.042Z,95007.91
2022-10-19T02:18:57.656Z,95003.19
2022-10-19T02:21:27.165Z,94998.03
2022-10-19T02:23:55.415Z,94995.00
2022-10-19T02:26:25.800Z,94995.84
2022-10-19T02:28:56.152Z,94995.56
2022-10-19T02:31:26.620Z,94995.66
2022-10-19T02:33:55.112Z,94994.59
2022-10-19T02:36:23.258Z,94996.34
2022-10-19T02:38:51.181Z,94998.34
2022-10-19T02:41:25.754Z,95001.84
2022-10-19T02:44:00.090Z,94997.41
2022-10-19T02:46:34.165Z,94995.72
2022-10-19T02:49:05.001Z,94991.50
2022-10-19T02:51:34.997Z,95000.81
2022-10-19T02:54:05.215Z,94996.06
2022-10-19T02:56:33.983Z,94985.59
2022-10-19T02:59:02.038Z,94977.72
2022-10-19T03:01:31.738Z,94981.78
2022-10-19T03:03:59.648Z,94969.06
2022-10-19T03:06:27.547Z,94979.03
2022-10-19T03:08:55.417Z,94976.44
2022-10-19T03:11:23.504Z,94987.84
2022-10-19T03:13:51.497Z,94981.28
2022-10-19T03:16:19.443Z,94987.50
2022-10-19T03:18:49.320Z,94976.78
2022-10-19T03:21:17.312Z,94987.28
2022-10-19T03:23:45.629Z,94990.34
2022-10-19T03:26:16.141Z,94980.84
2022-10-19T03:28:45.004Z,94979.06
2022-10-19T03:31:13.093Z,94979.56
2022-10-19T03:33:40.947Z,94976.25
2022-10-19T03:36:18.438Z,94979.13
2022-10-19T03:38:46.395Z,94968.41
2022-10-19T03:41:14.547Z,94969.09
2022-10-19T03:43:42.536Z,94968.03
2022-10-19T03:46:10.948Z,94962.19
2022-10-19T03:48:39.043Z,94965.97
2022-10-19T03:51:10.361Z,94962.03
2022-10-19T03:53:40.764Z,94955.81
2022-10-19T03:56:11.731Z,94959.97
2022-10-19T03:58:40.589Z,94952.66
2022-10-19T04:01:10.587Z,94950.97
2022-10-19T04:03:39.072Z,94957.19
2022-10-19T04:06:12.634Z,94960.03
2022-10-19T04:08:42.231Z,94955.25
2022-10-19T04:11:14.189Z,94954.88
2022-10-19T04:13:42.145Z,94956.88
2022-10-19T04:16:14.526Z,94956.06
2022-10-19T04:18:42.836Z,94948.72
2022-10-19T04:21:21.886Z,94948.03
2022-10-19T04:23:52.152Z,94939.88
2022-10-19T04:26:20.423Z,94940.81
2022-10-19T04:28:48.575Z,94943.53
2022-10-19T04:31:16.553Z,94942.00
2022-10-19T04:36:17.490Z,94931.81
2022-10-19T04:38:45.361Z,94903.66
2022-10-19T04:41:17.237Z,94915.63
2022-10-19T04:43:45.517Z,94915.94
2022-10-19T04:46:15.529Z,94930.81
2022-10-19T04:48:44.299Z,94935.94
2022-10-19T04:51:12.911Z,94934.97
2022-10-19T04:53:42.429Z,94939.97
2022-10-19T04:56:12.888Z,94938.63
2022-10-19T04:58:42.438Z,94946.81
2022-10-19T05:01:12.345Z,94930.19
2022-10-19T05:03:40.651Z,94937.31
2022-10-19T05:06:09.511Z,94940.69
2022-10-19T05:08:38.872Z,94927.03
2022-10-19T05:11:09.754Z,94925.75
2022-10-19T05:13:38.297Z,94929.91
2022-10-19T05:16:14.506Z,94926.28
2022-10-19T05:18:43.176Z,94929.56
2022-10-19T05:21:12.918Z,94925.22
2022-10-19T05:23:42.091Z,94923.31
2022-10-19T05:26:12.538Z,94929.59
2022-10-19T05:28:42.795Z,94936.84
2022-10-19T05:31:14.182Z,94940.56
2022-10-19T05:33:43.092Z,94945.94
2022-10-19T05:36:16.408Z,94946.91
2022-10-19T05:38:44.835Z,94947.53
2022-10-19T05:41:14.048Z,94938.06
2022-10-19T05:43:43.862Z,94949.16
2022-10-19T05:46:17.773Z,94951.28
2022-10-19T05:48:49.065Z,94954.47
2022-10-19T05:51:19.045Z,94941.31
2022-10-19T05:53:47.807Z,94944.06
2022-10-19T05:56:18.579Z,94940.75
2022-10-19T05:58:48.137Z,94942.84
2022-10-19T06:01:19.359Z,94953.03
2022-10-19T06:03:50.417Z,94955.38
2022-10-19T06:06:19.638Z,94947.09
2022-10-19T06:08:48.785Z,94955.31
2022-10-19T06:11:18.598Z,94957.47
2022-10-19T06:13:50.423Z,94962.13
2022-10-19T06:16:21.464Z,94969.22
2022-10-19T06:18:50.798Z,94960.53
2022-10-19T06:21:21.140Z,94960.59
2022-10-19T06:23:51.607Z,94974.75
2022-10-19T06:26:20.648Z,94979.13
2022-10-19T06:28:49.651Z,94982.13
2022-10-19T06:31:19.509Z,94966.44
2022-10-19T06:33:49.459Z,94965.06
2022-10-19T06:36:21.453Z,94984.56
2022-10-19T06:38:50.391Z,94983.63
2022-10-19T06:41:19.321Z,94982.41
2022-10-19T06:43:51.047Z,94973.59
2022-10-19T06:46:24.363Z,94984.41
2022-10-19T06:48:54.274Z,94986.00
2022-10-19T06:51:27.118Z,94981.69
2022-10-19T06:53:57.153Z,94973.25
2022-10-19T06:56:26.118Z,94978.94
2022-10-19T06:58:55.282Z,94961.53
2022-10-19T07:01:25.490Z,94960.56
2022-10-19T07:03:53.961Z,94968.53
2022-10-19T07:06:23.072Z,94962.94
2022-10-19T07:08:58.506Z,94968.34
2022-10-19T07:11:26.606Z,94968.56
2022-10-19T07:13:55.682Z,94979.69
2022-10-19T07:16:33.237Z,94966.81
2022-10-19T07:19:01.918Z,94964.75
2022-10-19T07:21:30.339Z,94971.38
2022-10-19T07:23:58.537Z,94971.81
2022-10-19T07:26:30.896Z,94969.19
2022-10-19T07:28:59.737Z,94970.44
2022-10-19T07:31:35.779Z,94962.09
2022-10-19T07:34:06.524Z,94962.31
2022-10-19T07:36:37.341Z,94955.13
2022-10-19T07:39:08.644Z,94962.75
2022-10-19T07:41:37.180Z,94946.00
2022-10-19T07:44:09.002Z,94959.19
2022-10-19T07:46:40.713Z,94952.16
2022-10-19T07:49:14.142Z,94953.50
2022-10-19T07:51:42.316Z,94940.25
2022-10-19T07:54:10.309Z,94940.81
2022-10-19T07:56:41.592Z,94935.19
2022-10-19T07:59:11.286Z,94944.53
2022-10-19T08:01:43.193Z,94935.78
2022-10-19T08:04:55.377Z,94925.13
2022-10-19T08:06:59.637Z,94928.06
2022-10-19T08:09:51.399Z,94930.22
2022-10-19T08:12:15.919Z,94931.22
2022-10-19T08:14:44.265Z,94924.41
2022-10-19T08:17:17.578Z,94938.22
2022-10-19T08:19:46.585Z,94923.13
2022-10-19T08:22:14.703Z,94936.75
2022-10-19T08:24:42.978Z,94928.28
2022-10-19T08:27:12.699Z,94926.94
2022-10-19T08:29:40.825Z,94921.06
2022-10-19T08:32:09.126Z,94918.13
2022-10-19T08:34:38.814Z,94928.59
2022-10-19T08:37:14.961Z,94915.78
2022-10-19T08:39:54.208Z,94921.88
2022-10-19T08:42:31.409Z,94917.09
2022-10-19T08:45:28.661Z,94915.56
2022-10-19T08:48:18.055Z,94905.31
2022-10-19T08:50:49.696Z,94892.13
2022-10-19T08:53:25.786Z,94887.03
2022-10-19T08:56:07.128Z,94900.94
2022-10-19T08:58:50.481Z,94897.78
2022-10-19T09:01:37.565Z,94891.31
2022-10-19T09:04:14.466Z,94891.72
2022-10-19T09:06:54.499Z,94894.25
2022-10-19T09:09:24.298Z,94867.75
2022-10-19T09:11:56.481Z,94896.22
2022-10-19T09:14:30.365Z,94890.50
2022-10-19T09:17:06.662Z,94886.53
2022-10-19T09:19:35.105Z,94901.19
2022-10-19T09:22:09.544Z,94881.75
2022-10-19T09:24:43.921Z,94877.44
2022-10-19T09:27:21.677Z,94886.72
2022-10-19T09:29:56.954Z,94890.31
2022-10-19T09:32:29.218Z,94879.66
2022-10-19T09:35:02.679Z,94883.53
2022-10-19T09:37:34.310Z,94884.13
2022-10-19T09:40:03.256Z,94901.06
2022-10-19T09:42:33.871Z,94892.34
2022-10-19T09:45:13.185Z,94869.09
2022-10-19T09:47:44.072Z,94869.25
2022-10-19T09:50:22.340Z,94872.75
2022-10-19T09:52:53.400Z,94889.22
2022-10-19T09:55:27.986Z,94883.84
2022-10-19T09:58:05.640Z,94886.38
2022-10-19T10:00:37.785Z,94878.97
2022-10-19T10:03:07.784Z,94875.44
2022-10-19T10:05:38.201Z,94864.97
2022-10-19T10:08:26.050Z,94858.78
2022-10-19T10:11:07.032Z,94870.69
2022-10-19T10:13:39.534Z,94859.78
2022-10-19T10:16:11.352Z,94845.09
2022-10-19T10:18:51.987Z,94848.09
2022-10-19T10:21:25.913Z,94841.44
2022-10-19T10:24:05.557Z,94836.88
2022-10-19T10:29:04.767Z,94826.88
2022-10-19T10:31:33.484Z,94804.63
2022-10-19T10:34:16.330Z,94819.81
2022-10-19T10:36:55.280Z,94813.94
2022-10-19T10:39:27.538Z,94794.88
2022-10-19T10:41:57.004Z,94786.41
2022-10-19T10:44:31.021Z,94805.94
2022-10-19T10:47:03.285Z,94792.75
2022-10-19T10:49:36.655Z,94786.09
2022-10-19T10:52:09.379Z,94773.53
2022-10-19T10:54:59.812Z,94783.31
2022-10-19T10:57:33.107Z,94787.94
2022-10-19T11:00:08.539Z,94775.06
2022-10-19T11:02:43.017Z,94766.53
2022-10-19T11:05:17.086Z,94761.44
2022-10-19T11:07:48.449Z,94752.69
2022-10-19T11:10:25.509Z,94760.41
2022-10-19T11:13:04.084Z,94753.97
2022-10-19T11:15:36.644Z,94740.19
2022-10-19T11:18:17.722Z,94746.69
2022-10-19T11:20:55.314Z,94745.34
2022-10-19T11:23:36.572Z,94738.84
2022-10-19T11:26:20.786Z,94738.91
2022-10-19T11:29:05.759Z,94726.72
2022-10-19T11:31:45.936Z,94739.31
2022-10-19T11:34:29.036Z,94718.38
2022-10-19T11:37:03.926Z,94732.72
2022-10-19T11:39:45.929Z,94724.94
2022-10-19T11:42:25.356Z,94716.94
2022-10-19T11:45:05.775Z,94723.44
2022-10-19T11:47:55.989Z,94723.28
2022-10-19T11:50:37.558Z,94711.41
2022-10-19T11:53:16.550Z,94708.47
2022-10-19T11:55:53.198Z,94713.22
2022-10-19T11:58:37.516Z,94711.91
2022-10-19T12:01:21.537Z,94703.63
2022-10-19T12:04:29.202Z,94685.88
2022-10-19T12:07:09.074Z,94682.03
2022-10-19T12:09:49.446Z,94694.94
2022-10-19T12:12:28.951Z,94681.38
2022-10-19T12:15:07.006Z,94680.28
2022-10-19T12:17:39.737Z,94698.16
2022-10-19T12:20:19.820Z,94692.00
2022-10-19T12:22:55.129Z,94684.94
2022-10-19T12:25:24.894Z,94697.44
2022-10-19T12:27:54.840Z,94683.00
2022-10-19T12:30:25.472Z,94681.84
2022-10-19T12:33:22.203Z,94689.22
2022-10-19T12:36:01.166Z,94680.56
2022-10-19T12:38:43.956Z,94674.47
2022-10-19T12:41:24.000Z,94671.00
2022-10-19T12:44:08.061Z,94682.00
2022-10-19T12:46:42.766Z,94680.91
2022-10-19T12:49:38.622Z,94674.47
2022-10-19T12:52:09.835Z,94673.31
2022-10-19T12:54:41.191Z,94676.19
2022-10-19T12:57:29.560Z,94660.13
2022-10-19T13:00:20.238Z,94668.63
2022-10-19T13:03:00.668Z,94664.66
2022-10-19T13:05:31.291Z,94669.06
2022-10-19T13:08:02.882Z,94660.22
2022-10-19T13:10:33.484Z,94663.59
2022-10-19T13:13:03.766Z,94659.16
2022-10-19T13:16:00.837Z,94661.03
2022-10-19T13:19:06.593Z,94664.16
2022-10-19T13:22:28.378Z,94643.00
2022-10-19T13:25:34.137Z,94652.53
2022-10-19T13:34:36.010Z,94654.88
2022-10-19T13:37:05.670Z,94647.88
2022-10-19T13:39:40.553Z,94655.47
2022-10-19T13:42:24.995Z,94639.84
2022-10-19T13:44:56.282Z,94642.97
2022-10-19T13:50:26.988Z,94632.47
2022-10-19T13:53:19.240Z,94638.88
2022-10-19T13:56:17.380Z,94635.31
2022-10-19T13:59:10.414Z,94625.47
2022-10-19T14:01:58.374Z,94629.19
2022-10-19T14:04:37.484Z,94629.81
2022-10-19T14:07:29.310Z,94623.66
2022-10-19T14:10:09.328Z,94612.72
2022-10-19T14:12:42.041Z,94615.75
2022-10-19T14:15:24.524Z,94622.56
2022-10-19T14:17:54.060Z,94623.75
2022-10-19T14:20:31.143Z,94625.28
2022-10-19T14:23:19.178Z,94625.22
2022-10-19T14:25:52.616Z,94620.59
2022-10-19T14:28:23.546Z,94625.66
2022-10-19T14:30:57.505Z,94608.25
2022-10-19T14:33:27.405Z,94612.38
2022-10-19T14:35:56.748Z,94627.75
2022-10-19T14:38:35.333Z,94630.13
2022-10-19T14:41:03.900Z,94634.69
2022-10-19T14:43:33.742Z,94623.94
2022-10-19T14:46:10.997Z,94628.44
2022-10-19T14:48:40.495Z,94635.00
2022-10-19T14:51:26.718Z,94629.69
2022-10-19T14:54:00.327Z,94629.28
2022-10-19T14:56:35.147Z,94628.97
2022-10-19T14:59:06.722Z,94625.91
2022-10-19T15:01:36.143Z,94648.56
2022-10-19T15:04:04.637Z,94641.06
2022-10-19T15:06:35.798Z,94641.72
2022-10-19T15:09:15.327Z,94674.75
2022-10-19T15:11:54.608Z,94649.81
2022-10-19T15:14:27.404Z,94653.22
2022-10-19T15:16:57.246Z,94658.50
2022-10-19T15:19:29.650Z,94671.88
2022-10-19T15:22:26.623Z,94670.31
2022-10-19T15:25:20.583Z,94663.84
2022-10-19T15:27:50.840Z,94662.03
2022-10-19T15:30:28.492Z,94679.94
2022-10-19T15:33:11.301Z,94674.44
2022-10-19T15:35:40.718Z,94679.22
2022-10-19T15:38:16.699Z,94692.09
2022-10-19T15:40:48.429Z,94665.41
2022-10-19T15:43:45.438Z,94698.34
2022-10-19T15:46:28.300Z,94697.44
2022-10-19T15:48:59.513Z,94704.56
2022-10-19T15:51:46.106Z,94691.91
2022-10-19T15:54:17.296Z,94709.88
2022-10-19T15:56:48.965Z,94716.56
2022-10-19T15:59:19.297Z,94713.78
2022-10-19T16:01:53.681Z,94725.31
2022-10-19T16:04:25.736Z,94723.72
2022-10-19T16:06:54.000Z,94727.75
2022-10-19T16:09:23.268Z,94731.41
2022-10-19T16:11:56.975Z,94735.63
2022-10-19T16:14:29.891Z,94736.06
2022-10-19T16:17:02.125Z,94749.38
2022-10-19T16:19:30.584Z,94739.88
2022-10-19T16:21:58.542Z,94742.50
2022-10-19T16:24:26.581Z,94762.06
2022-10-19T16:27:15.252Z,94743.88
2022-10-19T16:29:44.259Z,94756.41
2022-10-19T16:32:12.277Z,94755.00
2022-10-19T16:34:42.660Z,94757.78
2022-10-19T16:37:13.159Z,94775.50
2022-10-19T16:39:41.361Z,94755.13
2022-10-19T16:42:13.604Z,94763.59
2022-10-19T16:44:42.051Z,94767.00
2022-10-19T16:47:10.029Z,94781.09
2022-10-19T16:49:37.993Z,94787.75
2022-10-19T16:52:06.418Z,94798.00
2022-10-19T16:54:34.914Z,94791.72
2022-10-19T16:57:07.185Z,94794.13
2022-10-19T16:59:39.054Z,94793.31
2022-10-19T17:02:07.033Z,94811.25
2022-10-19T17:04:35.350Z,94798.34
2022-10-19T17:07:03.521Z,94814.44
2022-10-19T17:09:49.702Z,94818.06
2022-10-19T17:12:20.156Z,94814.59
2022-10-19T17:14:51.278Z,94808.59
2022-10-19T17:17:21.128Z,94816.81
2022-10-19T17:19:49.646Z,94815.56
2022-10-19T17:22:17.587Z,94820.03
2022-10-19T17:24:47.338Z,94816.97
2022-10-19T17:27:15.455Z,94820.94
2022-10-19T17:29:43.587Z,94816.56
2022-10-19T17:32:13.303Z,94825.41
2022-10-19T17:34:41.555Z,94817.72
2022-10-19T17:37:09.527Z,94828.19
2022-10-19T17:39:37.521Z,94821.69
2022-10-19T17:42:05.470Z,94824.25
2022-10-19T17:44:33.515Z,94822.09
2022-10-19T17:47:02.111Z,94832.56
2022-10-19T17:49:31.855Z,94825.44
2022-10-19T17:52:02.598Z,94833.06
2022-10-19T17:54:43.377Z,94822.16
2022-10-19T17:57:23.393Z,94818.94
2022-10-19T17:59:52.968Z,94830.22
2022-10-19T18:02:21.604Z,94824.34
2022-10-19T18:04:51.372Z,94825.75
2022-10-19T18:07:22.016Z,94825.09
2022-10-19T18:09:51.492Z,94826.53
2022-10-19T18:12:19.482Z,94823.50
2022-10-19T18:14:47.397Z,94830.34
2022-10-19T18:17:16.520Z,94822.66
2022-10-19T18:19:44.721Z,94831.38
2022-10-19T18:22:14.248Z,94821.22
2022-10-19T18:24:49.757Z,94827.41
2022-10-19T18:27:17.856Z,94820.56
2022-10-19T18:29:46.038Z,94827.59
2022-10-19T18:32:14.898Z,94818.69
2022-10-19T18:34:44.326Z,94830.78
2022-10-19T18:37:16.100Z,94831.75
2022-10-19T18:39:44.294Z,94841.41
2022-10-19T18:42:13.190Z,94820.13
2022-10-19T18:44:42.526Z,94826.78
2022-10-19T18:47:12.077Z,94850.75
2022-10-19T18:49:40.047Z,94839.88
2022-10-19T18:52:08.278Z,94833.16
2022-10-19T18:54:37.795Z,94844.84
2022-10-19T18:57:06.136Z,94827.63
2022-10-19T18:59:34.260Z,94846.97
2022-10-19T19:02:02.421Z,94848.59
2022-10-19T19:04:31.258Z,94859.41
2022-10-19T19:06:59.304Z,94859.72
2022-10-19T19:09:27.240Z,94859.63
2022-10-19T19:11:58.637Z,94860.81
2022-10-19T19:14:27.778Z,94867.78
2022-10-19T19:16:55.760Z,94854.28
2022-10-19T19:19:25.889Z,94863.75
2022-10-19T19:21:55.849Z,94865.72
2022-10-19T19:24:31.548Z,94865.53
2022-10-19T19:27:01.234Z,94875.81
2022-10-19T19:29:30.504Z,94886.59
2022-10-19T19:31:59.094Z,94866.00
2022-10-19T19:34:27.266Z,94878.69
2022-10-19T19:36:55.492Z,94887.25
2022-10-19T19:39:23.529Z,94879.41
2022-10-19T19:41:51.984Z,94891.28
2022-10-19T19:44:21.470Z,94881.69
2022-10-19T19:46:49.640Z,94912.09
2022-10-19T19:49:18.120Z,94906.34
2022-10-19T19:51:46.317Z,94906.34
2022-10-19T19:54:14.281Z,94907.97
2022-10-19T19:56:43.662Z,94901.84
2022-10-19T19:59:13.307Z,94916.25
2022-10-19T20:01:43.487Z,94914.16
2022-10-19T20:04:12.077Z,94910.91
2022-10-19T20:06:41.304Z,94928.84
2022-10-19T20:09:10.771Z,94913.19
2022-10-19T20:11:42.475Z,94908.75
2022-10-19T20:14:11.106Z,94930.19
2022-10-19T20:16:39.055Z,94919.22
2022-10-19T20:19:10.740Z,94919.91
2022-10-19T20:21:38.865Z,94917.97
2022-10-19T20:24:07.481Z,94925.69
2022-10-19T20:26:35.513Z,94930.19
2022-10-19T20:29:05.683Z,94920.81
2022-10-19T20:31:39.436Z,94926.59
2022-10-19T20:34:11.028Z,94926.75
2022-10-19T20:36:39.072Z,94922.91
2022-10-19T20:39:07.358Z,94938.75
2022-10-19T20:41:35.576Z,94937.13
2022-10-19T20:44:03.532Z,94931.91
2022-10-19T20:46:31.788Z,94928.66
2022-10-19T20:49:01.929Z,94936.75
2022-10-19T20:51:32.979Z,94934.97
2022-10-19T20:54:03.807Z,94934.84
2022-10-19T20:56:34.716Z,94943.50
2022-10-19T20:59:04.834Z,94931.78
2022-10-19T21:01:34.432Z,94942.59
2022-10-19T21:04:04.775Z,94919.44
2022-10-19T21:06:38.594Z,94914.13
2022-10-19T21:09:07.387Z,94932.03
2022-10-19T21:11:37.182Z,94929.16
2022-10-19T21:14:07.353Z,94941.75
2022-10-19T21:16:37.728Z,94938.59
2022-10-19T21:19:07.520Z,94946.97
2022-10-19T21:21:39.152Z,94941.41
2022-10-19T21:24:11.176Z,94941.75
2022-10-19T21:26:40.236Z,94952.94
2022-10-19T21:29:09.764Z,94937.63
2022-10-19T21:31:39.584Z,94948.88
2022-10-19T21:34:08.789Z,94952.78
2022-10-19T21:36:38.081Z,94949.09
2022-10-19T21:39:06.892Z,94954.50
2022-10-19T21:41:34.909Z,94936.75
2022-10-19T21:44:02.857Z,94947.66
2022-10-19T21:46:30.799Z,94952.88
2022-10-19T21:48:58.768Z,94955.69
2022-10-19T21:51:34.483Z,94957.03
2022-10-19T21:54:04.084Z,94960.72
2022-10-19T21:56:32.501Z,94949.75
2022-10-19T21:59:00.585Z,94949.09
2022-10-19T22:01:30.043Z,94985.19
2022-10-19T22:03:58.485Z,94951.00
2022-10-19T22:06:27.284Z,94965.94
2022-10-19T22:08:55.486Z,94956.13
2022-10-19T22:11:25.588Z,94962.59
2022-10-19T22:13:55.058Z,94958.81
2022-10-19T22:16:23.112Z,94959.38
2022-10-19T22:18:51.092Z,94970.53
2022-10-19T22:21:21.825Z,94961.09
2022-10-19T22:23:53.443Z,94959.66
2022-10-19T22:26:26.509Z,94974.50
2022-10-19T22:28:56.373Z,94955.59
2022-10-19T22:31:24.838Z,94962.72
2022-10-19T22:33:52.769Z,94951.44
2022-10-19T22:36:21.149Z,94953.13
2022-10-19T22:38:49.059Z,94953.59
2022-10-19T22:41:16.940Z,94956.66
2022-10-19T22:43:46.219Z,94948.44
2022-10-19T22:46:14.101Z,94957.91
2022-10-19T22:48:42.061Z,94949.19
2022-10-19T22:51:09.942Z,94958.81
2022-10-19T22:53:37.824Z,94955.41
2022-10-19T22:56:06.425Z,94956.00
2022-10-19T22:58:34.402Z,94950.53
2022-10-19T23:01:08.367Z,94950.09
2022-10-19T23:03:37.617Z,94949.00
2022-10-19T23:06:05.564Z,94945.75
2022-10-19T23:08:33.639Z,94944.50
2022-10-19T23:11:01.955Z,94949.66
2022-10-19T23:13:29.896Z,94951.44
2022-10-19T23:15:57.830Z,94951.81
2022-10-19T23:18:27.339Z,94951.63
2022-10-19T23:20:56.152Z,94943.88
2022-10-19T23:23:24.622Z,94950.63
2022-10-19T23:26:02.619Z,94947.03
2022-10-19T23:28:31.673Z,94953.97
2022-10-19T23:31:04.615Z,94949.25
2022-10-19T23:33:34.237Z,94951.06
2022-10-19T23:36:07.072Z,94948.00
2022-10-19T23:38:35.209Z,94944.41
2022-10-19T23:41:03.409Z,94953.69
2022-10-19T23:43:31.595Z,94945.03
2022-10-19T23:45:59.781Z,94941.16
2022-10-19T23:48:27.841Z,94942.44
2022-10-19T23:51:01.326Z,94941.25
2022-10-19T23:53:30.521Z,94943.41
2022-10-19T23:56:02.099Z,94953.59
2022-10-19T23:58:30.154Z,94961.59
